createdAt,value
2022-09-28T00:05:38.828Z,6.8996655518394645
2022-09-28T00:12:07.744Z,6.157190635451505
2022-09-28T00:18:37.448Z,7.4280936454849495
2022-09-28T00:34:10.807Z,7.769230769230769
2022-09-28T00:41:49.086Z,8.264214046822742
2022-09-28T00:53:40.083Z,8.729096989966555
2022-09-28T01:00:08.616Z,9.267558528428093
2022-09-28T01:12:00.468Z,9.043478260869565
2022-09-28T01:18:29.741Z,9.77257525083612
2022-09-28T01:25:04.714Z,7.662207357859532
2022-09-28T01:31:33.443Z,8.575250836120402
2022-09-28T01:38:01.266Z,9.160535117056856
2022-09-28T01:44:29.504Z,9.274247491638796
2022-09-28T01:50:57.493Z,9.879598662207357
2022-09-28T01:57:25.672Z,9.74247491638796
2022-09-28T02:03:53.672Z,10.949832775919733
2022-09-28T02:17:25.531Z,11.37123745819398
2022-09-28T02:24:02.433Z,13.010033444816054
2022-09-28T02:36:33.420Z,14.17056856187291
2022-09-28T02:43:01.740Z,13.073578595317725
2022-09-28T02:49:29.772Z,12.59866220735786
2022-09-28T02:55:57.931Z,13.501672240802675
2022-09-28T03:03:09.209Z,13.986622073578594
2022-09-28T03:10:50.352Z,13.785953177257525
2022-09-28T03:25:06.181Z,16.45484949832776
2022-09-28T03:31:34.464Z,15.949832775919733
2022-09-28T03:38:02.754Z,17.150501672240804
2022-09-28T03:44:31.640Z,15.729096989966555
2022-09-28T03:54:15.957Z,17.68896321070234
2022-09-28T04:00:43.931Z,17.94983277591973
2022-09-28T04:12:53.629Z,18.421404682274247
2022-09-28T04:19:21.101Z,19.68896321070234
2022-09-28T04:29:11.252Z,16.451505016722408
2022-09-28T04:36:39.900Z,17.153846153846153
2022-09-28T04:43:07.673Z,15.79598662207358
2022-09-28T04:49:35.679Z,13.66220735785953
2022-09-28T04:56:02.507Z,13.073578595317725
2022-09-28T05:03:29.584Z,12.729096989966555
2022-09-28T05:15:39.979Z,10.187290969899665
2022-09-28T05:22:08.172Z,11.986622073578594
2022-09-28T05:34:29.980Z,10.702341137123746
2022-09-28T05:40:57.818Z,11.478260869565217
2022-09-28T05:51:23.519Z,11.585284280936454
2022-09-28T05:57:49.976Z,10.77257525083612
2022-09-28T06:04:17.242Z,17.384615384615383
2022-09-28T06:10:44.725Z,7.966555183946488
2022-09-28T06:17:11.181Z,4.678929765886288
2022-09-28T06:23:48.987Z,4.963210702341137
2022-09-28T06:36:36.033Z,6.74247491638796
2022-09-28T06:44:47.305Z,5.304347826086956
2022-09-28T06:51:14.838Z,4.913043478260869
2022-09-28T06:57:42.472Z,5.311036789297659
2022-09-28T07:04:10.265Z,5.565217391304348
2022-09-28T07:10:37.790Z,5.698996655518394
2022-09-28T07:20:16.367Z,8.270903010033445
2022-09-28T07:26:52.348Z,6.882943143812709
2022-09-28T07:33:18.782Z,8.25752508361204
2022-09-28T07:39:46.048Z,5.190635451505017
2022-09-28T07:49:11.436Z,3.8160535117056855
2022-09-28T08:03:44.582Z,1.9096989966555185
2022-09-28T08:10:12.059Z,3.0735785953177257
2022-09-28T08:23:56.500Z,2.3043478260869565
2022-09-28T08:30:24.992Z,2.100334448160535
2022-09-28T08:36:52.988Z,2.17056856187291
2022-09-28T08:44:03.610Z,2.3043478260869565
2022-09-28T08:50:33.199Z,2.0869565217391304
2022-09-28T08:57:00.928Z,2.551839464882943
2022-09-28T09:07:41.978Z,7.40133779264214
2022-09-28T09:14:09.625Z,5.9799331103678925
2022-09-28T09:21:01.438Z,5.157190635451505
2022-09-28T09:27:49.568Z,6.2441471571906355
2022-09-28T09:34:18.386Z,10.123745819397993
2022-09-28T09:47:12.360Z,12.163879598662207
2022-09-28T09:53:41.050Z,15.645484949832776
2022-09-28T10:09:54.709Z,21.97993311036789
2022-09-28T10:16:24.932Z,17.96989966555184
2022-09-28T10:29:03.613Z,22.62541806020067
2022-09-28T11:00:12.401Z,25.49163879598662
2022-09-28T11:06:41.317Z,24.588628762541806
2022-09-28T11:13:09.415Z,24.872909698996654
2022-09-28T11:19:37.522Z,26.83277591973244
2022-09-28T11:31:45.914Z,22.789297658862875
2022-09-28T11:45:32.569Z,24.093645484949832
2022-09-28T11:56:18.034Z,26.99665551839465
2022-09-28T12:02:47.023Z,24.090301003344482
2022-09-28T12:10:07.895Z,23.187290969899667
2022-09-28T12:17:04.318Z,19.879598662207357
2022-09-28T12:23:42.624Z,20.05016722408027
2022-09-28T12:30:11.652Z,20.926421404682273
2022-09-28T12:36:41.994Z,20.65551839464883
2022-09-28T12:48:37.869Z,21.668896321070235
2022-09-28T12:58:38.270Z,21.010033444816052
2022-09-28T13:06:22.590Z,20.51839464882943
2022-09-28T13:14:56.410Z,18.50836120401338
2022-09-28T13:24:14.810Z,16.588628762541806
2022-09-28T13:33:03.915Z,17.421404682274247
2022-09-28T13:39:34.308Z,15.54180602006689
2022-09-28T13:50:43.090Z,15.173913043478262
2022-09-28T13:57:12.417Z,14.431438127090301
2022-09-28T14:03:42.217Z,13.224080267558529
2022-09-28T14:16:29.739Z,9.08695652173913
2022-09-28T14:22:58.977Z,8.959866220735785
2022-09-28T14:29:29.122Z,9.060200668896321
2022-09-28T14:35:57.857Z,9.2876254180602
2022-09-28T14:42:27.248Z,8.789297658862877
2022-09-28T14:52:19.850Z,8.023411371237458
2022-09-28T15:03:13.395Z,7.6923076923076925
2022-09-28T15:13:42.202Z,6.441471571906354
2022-09-28T15:20:13.146Z,7.535117056856187
2022-09-28T15:28:34.929Z,7.518394648829432
2022-09-28T15:41:55.987Z,6.344481605351171
2022-09-28T15:48:26.488Z,6.996655518394649
2022-09-28T15:54:56.439Z,9.090301003344482
2022-09-28T16:01:26.695Z,9.561872909698996
2022-09-28T16:07:56.699Z,9.010033444816054
2022-09-28T16:14:26.656Z,8.270903010033445
2022-09-28T16:20:57.012Z,8.073578595317725
2022-09-28T16:28:10.486Z,7.354515050167224
2022-09-28T16:34:40.335Z,8.792642140468228
2022-09-28T16:43:56.475Z,8.585284280936454
2022-09-28T16:50:26.818Z,9.478260869565217
2022-09-28T16:59:03.108Z,13.053511705685619
2022-09-28T17:05:33.131Z,19.31103678929766
2022-09-28T17:18:21.502Z,23.83277591973244
2022-09-28T17:27:21.474Z,21.384615384615383
2022-09-28T17:33:51.508Z,20.652173913043477
2022-09-28T17:40:21.517Z,20.307692307692307
2022-09-28T17:46:51.163Z,24.93979933110368
2022-09-28T17:53:21.441Z,26.648829431438127
2022-09-28T18:00:44.917Z,26.585284280936456
2022-09-28T18:25:51.197Z,26.531772575250837
2022-09-28T18:32:21.558Z,25.68896321070234
2022-09-28T18:38:51.709Z,27.645484949832777
2022-09-28T18:49:43.585Z,27.444816053511705
2022-09-28T18:56:17.233Z,29.555183946488295
2022-09-28T19:06:04.995Z,30.210702341137125
2022-09-28T19:12:36.645Z,28.51839464882943
2022-09-28T19:19:09.973Z,28.722408026755854
2022-09-28T19:25:54.372Z,30.096989966555185
2022-09-28T19:32:33.252Z,28.26086956521739
2022-09-28T19:39:08.818Z,31.62541806020067
2022-09-28T19:52:46.448Z,30.79933110367893
2022-09-28T19:59:21.053Z,30.585284280936456
2022-09-28T20:05:54.775Z,29.929765886287626
2022-09-28T20:12:28.680Z,27.976588628762542
2022-09-28T20:28:28.645Z,28.51839464882943
2022-09-28T20:40:59.348Z,28.498327759197323
2022-09-28T20:47:33.594Z,27.7190635451505
2022-09-28T20:54:06.994Z,27.294314381270905
2022-09-28T21:00:41.400Z,27.367892976588628
2022-09-28T21:34:15.591Z,27.377926421404684
2022-09-28T21:40:50.544Z,25.762541806020067
2022-09-28T21:47:25.938Z,25.923076923076923
2022-09-28T21:55:29.583Z,24.983277591973245
2022-09-28T22:02:04.576Z,26.401337792642142
2022-09-28T22:08:39.240Z,25.668896321070235
2022-09-28T22:25:25.700Z,29.62876254180602
2022-09-28T22:31:58.474Z,29.377926421404684
2022-09-28T22:38:32.055Z,26.48160535117057
2022-09-28T22:45:05.369Z,27.190635451505017
2022-09-28T22:51:39.712Z,24.207357859531772
2022-09-28T22:58:45.554Z,23.702341137123746
2022-09-28T23:05:20.830Z,25.37123745819398
2022-09-28T23:15:48.677Z,24.127090301003346
2022-09-28T23:22:23.541Z,24.40468227424749
2022-09-28T23:29:09.530Z,24.51505016722408
2022-09-28T23:36:05.238Z,24.632107023411372
2022-09-28T23:56:40.619Z,24.013377926421406
